Sonic Adventure (DX): Overall Rankings

Records: Times | Rings | Scores | Races | Bosses | Freestyle
Leaders: Times | Rings | Scores | Races | Bosses | Freestyle | Overall
Rank Player Percent Points Date Grade
1 Sonicspeedruner 98.3% 281 07-23-16 S
2 Gamepro011 98.2% 295 07-23-16 A
3 DarkPolarNight 96.2% 626 07-23-16 A
4 Jawzun 93.5% 1079 07-23-16 A
5 Dashjump 92.1% 1312 07-23-16 A
6 DarkspinesSonic 90.3% 1616 07-23-16 A
7 Avento128bits 90.0% 1672 07-23-16 A
8 ike6252 89.9% 1692 07-23-16 A
9 F-Man 88.0% 1997 07-23-16 A
10 Coolfansonic 85.1% 2485 07-23-16 A
11 HyperSonic7701 84.8% 2545 07-23-16 A
12 yoshifan 83.0% 2834 07-23-16 A
13 frankoredstrato 82.8% 2879 07-23-16 A
14 francisco 81.8% 3037 07-23-16 A
14 TheRealShadnic 81.8% 3037 07-23-16 A
16 Marth 81.5% 3091 07-23-16 A
17 InferSaime 80.2% 3306 07-23-16 A
18 PfoSonic 79.8% 3375 07-23-16 B
19 Paragod 79.5% 3429 07-23-16 B
20 THC98 78.6% 3579 07-23-16 B
21 Stefan 76.2% 3984 07-23-16 B
22 RPGnutter 74.0% 4341 07-23-16 B
23 bertin 73.9% 4371 07-23-16 B
24 sonicam 71.7% 4728 07-23-16 B
25 drminus 70.5% 4930 07-23-16 B
26 Combo 65.9% 5707 07-23-16 B
27 SkyLights 64.7% 5907 07-23-16 B
28 xXMegaManXx 64.0% 6018 07-23-16 B
29 Diamond 62.6% 6256 07-23-16 B
30 Auriman1 60.7% 6586 07-23-16 B
31 GerbilSoft 60.6% 6590 07-23-16 B
31 OmegaDJ 60.6% 6590 07-23-16 B
33 magnum12 59.7% 6745 07-23-16 C
34 Thorn 57.7% 7084 07-23-16 C
35 P1 Pause 57.4% 7125 07-23-16 C
36 mike89 56.3% 7310 07-23-16 C
37 Groudon199 54.4% 7628 07-23-16 C
38 Dave Cramer 54.4% 7634 07-23-16 C
39 chainchumper 54.2% 7671 07-23-16 C
40 Parax 53.4% 7805 07-23-16 C
41 Shadow Jacky 53.4% 7808 07-23-16 C
42 Psymar 48.2% 8671 07-23-16 C
43 Arch 46.6% 8936 07-23-16 C
44 Chao_Fan 46.5% 8956 07-23-16 C
45 mauserman 45.5% 9132 07-23-16 C
46 Quartz 45.4% 9138 07-23-16 C
47 teamblackarms 44.6% 9284 07-23-16 C
48 Psyknux 43.5% 9458 07-23-16 C
49 James_Bertolli 43.5% 9462 07-23-16 C
50 NintenDan 43.2% 9519 07-23-16 C
51 Webber3000 42.7% 9596 07-23-16 C
52 Turbos 42.6% 9618 07-23-16 C
53 Cream147 42.1% 9700 07-23-16 C
54 Ring Rush 42.0% 9710 07-23-16 C
55 videogamemaster777 42.0% 9714 07-23-16 C
56 Siavash Tazari 41.7% 9766 07-23-16 C
57 Fr3nZy 41.6% 9779 07-23-16 C
58 buddychaos0415 41.2% 9846 07-23-16 C
59 SadisticMystic 40.4% 9976 07-23-16 C
60 eggFL 39.9% 10070 07-23-16 D
61 Redd 38.9% 10228 07-23-16 D
62 SB737 38.2% 10343 07-23-16 D
63 supersonic465 37.5% 10465 07-23-16 D
64 supersonicfan 37.2% 10519 07-23-16 D
65 FuzZerd 35.9% 10727 07-23-16 D
66 elecmouse101 35.2% 10850 07-23-16 D
67 danieldude 34.9% 10901 07-23-16 D
68 metanightmare22 33.8% 11081 07-23-16 D
69 Austinf 33.7% 11102 07-23-16 D
70 Cyan Ryan 33.4% 11148 07-23-16 D
71 dabestgamer 33.4% 11151 07-23-16 D
72 Aitamen 33.4% 11152 07-23-16 D
73 MiStEr_ShAoLiN 33.3% 11166 07-23-16 D
74 Andrea Ritsu 32.4% 11324 07-23-16 D
75 itsPersonnal 32.0% 11395 07-23-16 D
76 Cybrax 31.3% 11513 07-23-16 D
77 SilvertheAlmighty 31.2% 11520 07-23-16 D
78 VMU Player Banned 29.1% 11868 07-23-16 D
79 Staf 28.9% 11900 07-23-16 D
80 Omega Rafael Santos 28.6% 11955 07-23-16 D
81 The T 28.5% 11969 07-23-16 D
82 ethmar 28.4% 11994 07-23-16 D
83 EngiNerd 28.3% 12005 07-23-16 D
84 Nimrod 28.1% 12045 07-23-16 D
85 lordmetalsonic 27.7% 12102 07-23-16 D
86 welldooder64 27.1% 12205 07-23-16 D
87 Hipertails12 27.1% 12215 07-23-16 D
88 GreatStar 26.9% 12249 07-23-16 D
89 Sondow 26.8% 12258 07-23-16 D
90 The Great Lord Mick 26.8% 12265 07-23-16 D
91 LinksDarkArrows 26.6% 12300 07-23-16 D
92 Mastakirby 26.5% 12317 07-23-16 D
93 Skylace 25.5% 12481 07-23-16 D
94 Rolken 24.1% 12711 07-23-16 D
95 Kogen Player Banned 22.3% 13008 07-23-16 D
96 Xia 22.3% 13013 07-23-16 D
97 Spinballwizard 22.3% 13017 07-23-16 D
98 a_moustache 22.2% 13033 07-23-16 D
99 f0rever_zer0 21.8% 13095 07-23-16 D
100 Twilisailor 21.8% 13097 07-23-16 D
101 Cutiefox 21.7% 13122 07-23-16 D
102 Don 21.5% 13146 07-23-16 D
103 Game_Complete 21.4% 13162 07-23-16 D
104 Miles9999 21.3% 13181 07-23-16 D
105 andres430 21.0% 13232 07-23-16 D
106 Cruizer 20.8% 13271 07-23-16 D
107 iSonicKid2K 20.6% 13293 07-23-16 D
108 SADXTryHard 20.3% 13354 07-23-16 D
109 GarnetPrincess 19.9% 13416 07-23-16 E
110 AxlThunder 19.1% 13551 07-23-16 E
111 knuckles_sonic8 18.8% 13598 07-23-16 E
112 The Knuckles Chao 18.4% 13672 07-23-16 E
113 KinkyCadence 18.3% 13677 07-23-16 E
114 Team_Yoshi 18.0% 13730 07-23-16 E
115 Termon 17.9% 13745 07-23-16 E
116 LittleBigness 17.9% 13750 07-23-16 E
117 FoxBoy 17.8% 13774 07-23-16 E
118 SonicWinDX 17.7% 13784 07-23-16 E
119 Drakodan 16.9% 13912 07-23-16 E
120 Sonic Singularity 16.0% 14074 07-23-16 E
121 Pokemonmaster888 15.8% 14111 07-23-16 E
122 BigAL49 14.8% 14267 07-23-16 E
123 MPit08 14.6% 14299 07-23-16 E
124 SilverSonic 14.6% 14304 07-23-16 E
125 WeegeeZV 14.3% 14348 07-23-16 E
126 Mo Player Banned 14.2% 14378 07-23-16 E
127 koinu93 14.2% 14379 07-23-16 E
128 HyperSonic64 13.8% 14445 07-23-16 E
129 Cod4Scopes 13.7% 14452 07-23-16 E
130 booo95 13.6% 14464 07-23-16 E
131 Jerzia 13.5% 14487 07-23-16 E
132 paulie9990 13.4% 14514 07-23-16 E
133 Chawkk 13.3% 14516 07-23-16 E
134 SuperSonic101 13.1% 14552 07-23-16 E
135 Hunters13 13.1% 14564 07-23-16 E
136 Maxinfamily 13.0% 14577 07-23-16 E
137 LilZero 12.7% 14627 07-23-16 E
138 Kanimayo_Jp 12.7% 14628 07-23-16 E
139 BrokenArthritis 12.5% 14651 07-23-16 E
140 PsyBorg 12.4% 14671 07-23-16 E
141 Flying Fox 12.4% 14678 07-23-16 E
142 Therio 12.1% 14723 07-23-16 E
143 sonicspeed 12.0% 14740 07-23-16 E
144 douglas 11.9% 14759 07-23-16 E
145 Matt_TY 11.5% 14823 07-23-16 E
146 thewaytodawnnn 11.4% 14836 07-23-16 E
147 Cooljay 10.9% 14920 07-23-16 E
148 joecoolgames 10.7% 14953 07-23-16 E
149 SeaWolf 10.7% 14955 07-23-16 E
150 videogamer1014 10.5% 14991 07-23-16 E
151 AC-Tygo 10.3% 15030 07-23-16 E
152 welshmoose05 10.2% 15043 07-23-16 E
153 OddCook 10.0% 15076 07-23-16 E
154 TFEC Headshot 10.0% 15083 07-23-16 E
155 crazy1993 9.9% 15090 07-23-16 E
156 Mcshuggets 9.7% 15124 07-23-16 E
157 niscool 9.4% 15172 07-23-16 E
158 imazor017 9.3% 15187 07-23-16 E
159 nuckrieg 9.2% 15207 07-23-16 E
160 Mariobutch 9.2% 15209 07-23-16 E
161 SonicAD 9.2% 15210 07-23-16 E
162 Shadowthegreat 9.1% 15228 07-23-16 E
163 SirTobbii 9.1% 15230 07-23-16 E
164 superjupi 9.1% 15233 07-23-16 E
165 sonamyfan666 8.7% 15286 07-23-16 E
166 iarebored 8.7% 15300 07-23-16 E
167 SaviourDC 8.6% 15311 07-23-16 E
168 SonicKnuckles 8.6% 15313 07-23-16 E
169 Werey 8.3% 15364 07-23-16 E
170 adf 8.2% 15371 07-23-16 E
171 Megaman EXE565 8.0% 15406 07-23-16 E
172 SuperBlitzCraig 8.0% 15414 07-23-16 E
173 ArcticDragon 7.7% 15465 07-23-16 E
174 Platformer 7.6% 15477 07-23-16 E
175 timpkmn89 7.5% 15496 07-23-16 E
176 FocusSight64 7.4% 15519 07-23-16 E
177 Swift Hobo 7.3% 15522 07-23-16 E
177 wheatrich 7.3% 15522 07-23-16 E
179 Rickyman48 7.2% 15552 07-23-16 E
180 KitsuneYamaro 7.0% 15571 07-23-16 E
181 Triseena 6.8% 15607 07-23-16 E
182 SonataSpinDash 6.7% 15636 07-23-16 E
183 CyberShadow 6.6% 15650 07-23-16 E
184 dShadow 6.5% 15654 07-23-16 E
185 slade23 6.5% 15663 07-23-16 E
186 Destroyer121121 6.5% 15666 07-23-16 E
186 Starlight Sable 6.5% 15666 07-23-16 E
188 IsisDazs 6.3% 15688 07-23-16 E
189 BlankTH 6.1% 15721 07-23-16 E
190 Monkeh 6.0% 15743 07-23-16 E
191 SonicU260 5.9% 15771 07-23-16 E
192 Richied 5.8% 15775 07-23-16 E
193 DaDude 5.7% 15790 07-23-16 E
194 Vicklaw 5.6% 15808 07-23-16 E
195 Zip 5.6% 15813 07-23-16 E
196 sonicd5 5.6% 15815 07-23-16 E
197 ALundstrom10 5.2% 15879 07-23-16 E
198 tal39h 5.2% 15883 07-23-16 E
199 VeritasDL 5.2% 15887 07-23-16 E
200 Kirbymon30 5.1% 15898 07-23-16 E
201 soniccoloursunleashed 5.0% 15920 07-23-16 E
202 Drflash55 4.9% 15925 07-23-16 E
203 Bass 4.8% 15941 07-23-16 E
204 neaolas 4.7% 15956 07-23-16 E
205 Yish 4.7% 15965 07-23-16 E
206 zapp 4.7% 15972 07-23-16 E
207 superiorsonic 4.6% 15980 07-23-16 E
208 UninspiredUsername 4.6% 15981 07-23-16 E
209 Sonicsuperstar1 4.6% 15986 07-23-16 E
210 gamefreak1292 4.5% 15998 07-23-16 E
211 Badlex727 4.5% 15999 07-23-16 E
212 Chaos_Overlord 4.2% 16046 07-23-16 E
213 TakaRikka 4.1% 16069 07-23-16 E
214 Valfore 4.0% 16080 07-23-16 E
215 ShinigamiMachine 3.8% 16108 07-23-16 E
216 N 3.8% 16116 07-23-16 E
217 Regano1000 3.8% 16119 07-23-16 E
218 MK 3.6% 16141 07-23-16 E
219 Ace747 3.6% 16151 07-23-16 E
220 Illidan 3.2% 16214 07-23-16 E
221 HHNNBBHHN 3.2% 16218 07-23-16 E
222 Venick409 3.1% 16226 07-23-16 E
223 Brian_pso 3.1% 16229 07-23-16 E
223 nman36 3.1% 16229 07-23-16 E
225 Sithwarrior26 3.1% 16231 07-23-16 E
226 Egor305 3.0% 16253 07-23-16 E
227 ingx24 3.0% 16256 07-23-16 E
228 TheChaosEmeraIds 2.9% 16259 07-23-16 E
229 SkyBon 2.9% 16264 07-23-16 E
230 Nickson98 2.9% 16266 07-23-16 E
231 Fozer 2.8% 16279 07-23-16 E
232 FSSRandomvids 2.8% 16286 07-23-16 E
233 Colomb_30 2.8% 16287 07-23-16 E
234 dekki1234 2.7% 16293 07-23-16 E
235 Aiko 2.7% 16303 07-23-16 E
236 sonic29887 2.7% 16305 07-23-16 E
237 TheUltraBlur 2.6% 16310 07-23-16 E
238 1stKirbyever 2.6% 16313 07-23-16 E
239 TimTH 2.6% 16323 07-23-16 E
240 Th4tN1nj4Turtl3 2.4% 16352 07-23-16 E
241 Cort_pso 2.3% 16358 07-23-16 E
242 Doom-9 2.3% 16367 07-23-16 E
243 ieatatsonic 2.3% 16368 07-23-16 E
244 Mariosonic15 2.3% 16371 07-23-16 E
245 MStitomix 2.1% 16392 07-23-16 E
246 HermitHelmet 2.1% 16394 07-23-16 E
247 Artie 2.1% 16405 07-23-16 E
247 SuperSonic71087 2.1% 16405 07-23-16 E
249 Got4n 2.1% 16408 07-23-16 E
250 Jose_15 2.0% 16420 07-23-16 E
251 Questionguy555 2.0% 16423 07-23-16 E
252 SuperSonicfan9595 1.9% 16439 07-23-16 E
253 djmat 1.9% 16441 07-23-16 E
254 sonicandamy 1.7% 16462 07-23-16 E
255 LancexExWx 1.7% 16469 07-23-16 E
256 Paixii 1.7% 16470 07-23-16 E
257 Heroes_Hater 1.7% 16471 07-23-16 E
258 son1cgu1tar 1.7% 16473 07-23-16 E
259 BallzeH 1.6% 16485 07-23-16 E
260 Mankster101 1.6% 16491 07-23-16 E
261 BecauseWarAnvil 1.5% 16493 07-23-16 E
262 Jamixesa 1.5% 16495 07-23-16 E
263 Crydio 1.5% 16505 07-23-16 E
264 Shanekilz 1.4% 16510 07-23-16 E
265 SpiritDragon1995 1.4% 16512 07-23-16 E
266 ReuelBrony 1.4% 16518 07-23-16 E
267 MarewBFN 1.4% 16525 07-23-16 E
268 stanski 1.3% 16526 07-23-16 E
269 Sonique Hedgehog 1.3% 16532 07-23-16 E
270 p0ker 1.3% 16540 07-23-16 E
271 Blue Infamy 1.3% 16542 07-23-16 E
272 ErrortheCucco 1.2% 16552 07-23-16 E
273 Rikum22 1.2% 16555 07-23-16 E
274 Arthas 1.1% 16560 07-23-16 E
275 sonic1001 1.1% 16564 07-23-16 E
276 AJSIV 1.1% 16570 07-23-16 E
277 syco1098 1.1% 16571 07-23-16 E
277 WingedInsignia 1.1% 16571 07-23-16 E
279 Sonic the Hedgehod16 1.1% 16574 07-23-16 E
280 Calfd 1.0% 16583 07-23-16 E
280 sonicfan9 1.0% 16583 07-23-16 E
282 BlackArmsShadow 0.9% 16593 07-23-16 E
283 themachoman202 0.9% 16596 07-23-16 E
284 shadowblast63 Player Banned 0.9% 16603 07-23-16 E
285 Greham Adelphis 0.9% 16605 07-23-16 E
286 Mr. Jones 0.9% 16606 07-23-16 E
287 darkstarblaze 0.9% 16607 07-23-16 E
287 Fivavoa 0.9% 16607 07-23-16 E
287 MastaToken 0.9% 16607 07-23-16 E
290 arcfx1985 0.9% 16609 07-23-16 E
291 Ben1502 0.8% 16610 07-23-16 E
292 ptorflaxendrosis 0.8% 16611 07-23-16 E
293 TommyeAsY 0.8% 16614 07-23-16 E
294 FlandreScarlet9999vr 0.8% 16616 07-23-16 E
295 Gvozdevik 0.8% 16617 07-23-16 E
296 Knuckles 0.8% 16619 07-23-16 E
296 Zeldocto 0.8% 16619 07-23-16 E
298 BeeAwwb 0.8% 16623 07-23-16 E
299 KaM Mark MaK 0.8% 16624 07-23-16 E
300 ShadouZaHejjihoggu 0.7% 16631 07-23-16 E
301 Sonic The Star 0.7% 16638 07-23-16 E
301 Sonic62 0.7% 16638 07-23-16 E
303 darkersupershadic 0.7% 16639 07-23-16 E
304 Sarger001 0.7% 16642 07-23-16 E
305 dragondragon18 0.6% 16644 07-23-16 E
305 Sogeking 0.6% 16644 07-23-16 E
307 Grady219 0.6% 16645 07-23-16 E
307 Shadygamerfreak 0.6% 16645 07-23-16 E
307 SonicK100 0.6% 16645 07-23-16 E
310 Jawaah 0.6% 16651 07-23-16 E
311 Antek 0.6% 16655 07-23-16 E
312 Klaus 0.6% 16657 07-23-16 E
313 SilverK 0.6% 16658 07-23-16 E
314 BioShadow 0.5% 16660 07-23-16 E
315 SpinDashMaster 0.5% 16665 07-23-16 E
316 Videogamer123 0.5% 16667 07-23-16 E
317 oTaiIilLsS 0.4% 16681 07-23-16 E
318 isaihtb11 0.4% 16682 07-23-16 E
319 OhNoes! 0.4% 16684 07-23-16 E
320 zaktu40 0.4% 16685 07-23-16 E
321 Mad Andy 0.4% 16687 07-23-16 E
322 gaara1234 0.4% 16688 07-23-16 E
322 S-MS32X-S 0.4% 16688 07-23-16 E
324 gamed00d 0.4% 16692 07-23-16 E
325 Mister_Slick 0.3% 16699 07-23-16 E
326 Sonic06Fan 0.3% 16702 07-23-16 E
327 Rush Hero 0.3% 16704 07-23-16 E
328 Iwannabelink 0.3% 16709 07-23-16 E
328 SonicMega167 0.3% 16709 07-23-16 E
330 sonknuck23 0.2% 16714 07-23-16 E
331 DanielTheFalcon 0.2% 16721 07-23-16 E
332 gamer1245 0.2% 16722 07-23-16 E
333 Burningskull123 0.1% 16728 07-23-16 E
334 Sonicontherun 0.1% 16739 07-23-16 E
335 Lil_Dude 0.1% 16743 07-23-16 E
336 antiwwe 0.0% 16745 07-23-16 E
337 Genuine Hedgehog 0.0% 16749 07-23-16 E
338 Cbwade15 0.0% 16750 07-23-16 E
339 Tyrouble 0.0% 16753 07-23-16 E
340 MegabombBlade 0.0% 16760 07-23-16 E
340 neji_hyuuga 0.0% 16760 07-23-16 E
340 Over 0.0% 16760 07-23-16 E
340 sdj6707 Player Banned 0.0% 16760 07-23-16 E
340 Tran Sonic Fan Player Banned 0.0% 16760 07-23-16 E

This page is using the New Data Table System. [FUTURE]


-- Back to Normal Skin --
Game ID: 3 | Category ID: 10
Hits: 67,253 | Hits This Month: 170 | DB Calls: 16 | Mem Usage: 5.45 MB | Time: 0.16s | Printable

The Sonic Center v3.9
Copyright 2003-2011 by The Sonic Center Team.